sensor_id;sensor_type;location;lat;lon;timestamp;pressure;altitude;pressure_sealevel;temperature;humidity
54540;BME280;40438;52.992;18.604;2022-12-18T00:01:02;102505.50;;;-4.57;100.00
54540;BME280;40438;52.992;18.604;2022-12-18T00:03:28;102510.16;;;-4.63;100.00
54540;BME280;40438;52.992;18.604;2022-12-18T00:05:54;102508.56;;;-4.66;100.00
54540;BME280;40438;52.992;18.604;2022-12-18T00:08:19;102504.94;;;-4.63;100.00
54540;BME280;40438;52.992;18.604;2022-12-18T00:10:45;102515.63;;;-4.68;100.00
54540;BME280;40438;52.992;18.604;2022-12-18T00:13:11;102516.75;;;-4.74;100.00
54540;BME280;40438;52.992;18.604;2022-12-18T00:15:38;102522.25;;;-4.80;100.00
54540;BME280;40438;52.992;18.604;2022-12-18T00:18:06;102521.50;;;-4.82;100.00
54540;BME280;40438;52.992;18.604;2022-12-18T00:20:35;102523.47;;;-4.87;100.00
54540;BME280;40438;52.992;18.604;2022-12-18T00:23:01;102529.69;;;-4.90;100.00
54540;BME280;40438;52.992;18.604;2022-12-18T00:25:27;102537.66;;;-4.93;100.00
54540;BME280;40438;52.992;18.604;2022-12-18T00:27:53;102535.03;;;-4.93;100.00
54540;BME280;40438;52.992;18.604;2022-12-18T00:30:19;102541.06;;;-4.91;100.00
54540;BME280;40438;52.992;18.604;2022-12-18T00:32:44;102542.13;;;-4.95;100.00
54540;BME280;40438;52.992;18.604;2022-12-18T00:35:11;102536.97;;;-4.96;100.00
54540;BME280;40438;52.992;18.604;2022-12-18T00:37:37;102546.72;;;-5.00;100.00
54540;BME280;40438;52.992;18.604;2022-12-18T00:40:04;102546.72;;;-5.00;100.00
54540;BME280;40438;52.992;18.604;2022-12-18T00:42:30;102554.59;;;-5.01;100.00
54540;BME280;40438;52.992;18.604;2022-12-18T00:44:56;102558.78;;;-4.97;100.00
54540;BME280;40438;52.992;18.604;2022-12-18T00:47:21;102561.97;;;-4.91;100.00
54540;BME280;40438;52.992;18.604;2022-12-18T00:49:47;102562.13;;;-4.94;100.00
54540;BME280;40438;52.992;18.604;2022-12-18T00:52:14;102564.78;;;-4.95;100.00
54540;BME280;40438;52.992;18.604;2022-12-18T00:54:40;102566.81;;;-5.02;100.00
54540;BME280;40438;52.992;18.604;2022-12-18T00:57:06;102557.44;;;-5.06;100.00
54540;BME280;40438;52.992;18.604;2022-12-18T00:59:32;102566.34;;;-5.10;100.00
54540;BME280;40438;52.992;18.604;2022-12-18T01:01:57;102570.41;;;-5.04;100.00
54540;BME280;40438;52.992;18.604;2022-12-18T01:04:23;102576.53;;;-5.04;100.00
54540;BME280;40438;52.992;18.604;2022-12-18T01:06:49;102577.41;;;-5.05;100.00
54540;BME280;40438;52.992;18.604;2022-12-18T01:09:16;102577.50;;;-5.06;100.00
54540;BME280;40438;52.992;18.604;2022-12-18T01:11:42;102580.16;;;-5.08;100.00
54540;BME280;40438;52.992;18.604;2022-12-18T01:14:09;102578.75;;;-5.15;100.00
54540;BME280;40438;52.992;18.604;2022-12-18T01:16:36;102587.69;;;-5.21;100.00
54540;BME280;40438;52.992;18.604;2022-12-18T01:19:04;102588.69;;;-5.23;100.00
54540;BME280;40438;52.992;18.604;2022-12-18T01:21:29;102585.16;;;-5.22;100.00
54540;BME280;40438;52.992;18.604;2022-12-18T01:23:56;102579.66;;;-5.16;100.00
54540;BME280;40438;52.992;18.604;2022-12-18T01:26:24;102587.56;;;-5.18;100.00
54540;BME280;40438;52.992;18.604;2022-12-18T01:28:50;102589.41;;;-5.20;100.00
54540;BME280;40438;52.992;18.604;2022-12-18T01:31:18;102590.88;;;-5.14;100.00
54540;BME280;40438;52.992;18.604;2022-12-18T01:33:45;102594.69;;;-5.21;100.00
54540;BME280;40438;52.992;18.604;2022-12-18T01:36:16;102597.44;;;-5.24;100.00
54540;BME280;40438;52.992;18.604;2022-12-18T01:38:42;102588.69;;;-5.23;100.00
54540;BME280;40438;52.992;18.604;2022-12-18T01:41:08;102588.53;;;-5.20;100.00
54540;BME280;40438;52.992;18.604;2022-12-18T01:43:48;102593.25;;;-5.28;100.00
54540;BME280;40438;52.992;18.604;2022-12-18T01:46:14;102602.19;;;-5.34;100.00
54540;BME280;40438;52.992;18.604;2022-12-18T01:48:40;102606.38;;;-5.30;100.00
54540;BME280;40438;52.992;18.604;2022-12-18T01:51:08;102616.09;;;-5.33;100.00
54540;BME280;40438;52.992;18.604;2022-12-18T01:53:36;102612.91;;;-5.40;100.00
54540;BME280;40438;52.992;18.604;2022-12-18T01:56:02;102619.06;;;-5.41;100.00
54540;BME280;40438;52.992;18.604;2022-12-18T01:58:37;102612.06;;;-5.41;100.00
54540;BME280;40438;52.992;18.604;2022-12-18T02:01:06;102611.41;;;-5.46;100.00
54540;BME280;40438;52.992;18.604;2022-12-18T02:03:32;102615.72;;;-5.45;100.00
54540;BME280;40438;52.992;18.604;2022-12-18T02:06:02;102615.72;;;-5.45;100.00
54540;BME280;40438;52.992;18.604;2022-12-18T02:08:37;102622.50;;;-5.41;100.00
54540;BME280;40438;52.992;18.604;2022-12-18T02:11:10;102625.06;;;-5.39;100.00
54540;BME280;40438;52.992;18.604;2022-12-18T02:13:45;102649.56;;;-5.42;100.00
54540;BME280;40438;52.992;18.604;2022-12-18T02:16:21;102631.91;;;-5.37;100.00
54540;BME280;40438;52.992;18.604;2022-12-18T02:18:51;102644.84;;;-5.33;100.00
54540;BME280;40438;52.992;18.604;2022-12-18T02:21:25;102638.66;;;-5.31;100.00
54540;BME280;40438;52.992;18.604;2022-12-18T02:23:59;102639.91;;;-5.19;100.00
54540;BME280;40438;52.992;18.604;2022-12-18T02:26:35;102640.53;;;-5.14;100.00
54540;BME280;40438;52.992;18.604;2022-12-18T02:29:05;102642.44;;;-5.18;100.00
54540;BME280;40438;52.992;18.604;2022-12-18T02:31:40;102648.72;;;-5.22;100.00
54540;BME280;40438;52.992;18.604;2022-12-18T02:34:09;102641.13;;;-5.28;100.00
54540;BME280;40438;52.992;18.604;2022-12-18T02:36:40;102649.56;;;-5.21;100.00
54540;BME280;40438;52.992;18.604;2022-12-18T02:39:09;102653.34;;;-5.28;100.00
54540;BME280;40438;52.992;18.604;2022-12-18T02:41:42;102659.75;;;-5.35;100.00
54540;BME280;40438;52.992;18.604;2022-12-18T02:44:09;102662.94;;;-5.29;100.00
54540;BME280;40438;52.992;18.604;2022-12-18T02:46:38;102659.63;;;-5.32;100.00
54540;BME280;40438;52.992;18.604;2022-12-18T02:49:17;102659.41;;;-5.28;100.00
54540;BME280;40438;52.992;18.604;2022-12-18T02:51:50;102662.09;;;-5.29;100.00
54540;BME280;40438;52.992;18.604;2022-12-18T02:54:24;102655.97;;;-5.28;100.00
54540;BME280;40438;52.992;18.604;2022-12-18T02:56:57;102665.19;;;-5.20;100.00
54540;BME280;40438;52.992;18.604;2022-12-18T02:59:26;102666.28;;;-5.25;100.00
54540;BME280;40438;52.992;18.604;2022-12-18T03:01:58;102659.25;;;-5.23;100.00
54540;BME280;40438;52.992;18.604;2022-12-18T03:04:26;102676.72;;;-5.25;100.00
54540;BME280;40438;52.992;18.604;2022-12-18T03:06:57;102663.53;;;-5.22;100.00
54540;BME280;40438;52.992;18.604;2022-12-18T03:09:27;102675.75;;;-5.23;100.00
54540;BME280;40438;52.992;18.604;2022-12-18T03:12:01;102688.09;;;-5.26;100.00
54540;BME280;40438;52.992;18.604;2022-12-18T03:14:30;102685.63;;;-5.29;100.00
54540;BME280;40438;52.992;18.604;2022-12-18T03:17:02;102683.06;;;-5.31;100.00
54540;BME280;40438;52.992;18.604;2022-12-18T03:19:32;102689.19;;;-5.32;100.00
54540;BME280;40438;52.992;18.604;2022-12-18T03:22:02;102685.66;;;-5.31;100.00
54540;BME280;40438;52.992;18.604;2022-12-18T03:24:38;102680.31;;;-5.28;100.00
54540;BME280;40438;52.992;18.604;2022-12-18T03:27:13;102684.03;;;-5.33;100.00
54540;BME280;40438;52.992;18.604;2022-12-18T03:29:43;102684.81;;;-5.31;100.00
54540;BME280;40438;52.992;18.604;2022-12-18T03:32:18;102695.41;;;-5.34;100.00
54540;BME280;40438;52.992;18.604;2022-12-18T03:34:49;102708.47;;;-5.34;100.00
54540;BME280;40438;52.992;18.604;2022-12-18T03:37:18;102710.28;;;-5.37;100.00
54540;BME280;40438;52.992;18.604;2022-12-18T03:39:44;102706.81;;;-5.37;100.00
54540;BME280;40438;52.992;18.604;2022-12-18T03:42:15;102717.09;;;-5.32;100.00
54540;BME280;40438;52.992;18.604;2022-12-18T03:44:52;102720.53;;;-5.32;100.00
54540;BME280;40438;52.992;18.604;2022-12-18T03:47:25;102718.09;;;-5.37;100.00
54540;BME280;40438;52.992;18.604;2022-12-18T03:49:58;102717.13;;;-5.34;100.00
54540;BME280;40438;52.992;18.604;2022-12-18T03:52:36;102722.25;;;-5.31;100.00
54540;BME280;40438;52.992;18.604;2022-12-18T03:55:03;102724.97;;;-5.34;100.00
54540;BME280;40438;52.992;18.604;2022-12-18T03:57:32;102729.09;;;-5.28;100.00
54540;BME280;40438;52.992;18.604;2022-12-18T04:00:01;102736.16;;;-5.30;100.00
54540;BME280;40438;52.992;18.604;2022-12-18T04:02:43;102747.50;;;-5.31;100.00
54540;BME280;40438;52.992;18.604;2022-12-18T04:05:14;102747.50;;;-5.31;100.00
54540;BME280;40438;52.992;18.604;2022-12-18T04:07:43;102749.28;;;-5.32;100.00
54540;BME280;40438;52.992;18.604;2022-12-18T04:10:10;102743.22;;;-5.32;100.00
54540;BME280;40438;52.992;18.604;2022-12-18T04:12:39;102747.63;;;-5.34;100.00
54540;BME280;40438;52.992;18.604;2022-12-18T04:15:09;102741.44;;;-5.32;100.00
54540;BME280;40438;52.992;18.604;2022-12-18T04:17:35;102735.31;;;-5.31;100.00
54540;BME280;40438;52.992;18.604;2022-12-18T04:20:01;102742.28;;;-5.31;100.00
54540;BME280;40438;52.992;18.604;2022-12-18T04:22:28;102744.91;;;-5.31;100.00
54540;BME280;40438;52.992;18.604;2022-12-18T04:24:58;102748.38;;;-5.31;100.00
54540;BME280;40438;52.992;18.604;2022-12-18T04:27:30;102748.38;;;-5.31;100.00
54540;BME280;40438;52.992;18.604;2022-12-18T04:30:00;102754.44;;;-5.30;100.00
54540;BME280;40438;52.992;18.604;2022-12-18T04:32:25;102748.31;;;-5.29;100.00
54540;BME280;40438;52.992;18.604;2022-12-18T04:34:51;102752.66;;;-5.30;100.00
54540;BME280;40438;52.992;18.604;2022-12-18T04:37:17;102754.44;;;-5.30;100.00
54540;BME280;40438;52.992;18.604;2022-12-18T04:39:43;102759.66;;;-5.30;100.00
54540;BME280;40438;52.992;18.604;2022-12-18T04:42:17;102762.28;;;-5.30;100.00
54540;BME280;40438;52.992;18.604;2022-12-18T04:44:43;102757.16;;;-5.33;100.00
54540;BME280;40438;52.992;18.604;2022-12-18T04:47:10;102763.19;;;-5.31;100.00
54540;BME280;40438;52.992;18.604;2022-12-18T04:49:35;102762.34;;;-5.32;100.00
54540;BME280;40438;52.992;18.604;2022-12-18T04:52:01;102771.94;;;-5.32;100.00
54540;BME280;40438;52.992;18.604;2022-12-18T04:54:27;102769.22;;;-5.29;100.00
54540;BME280;40438;52.992;18.604;2022-12-18T04:56:53;102774.47;;;-5.31;100.00
54540;BME280;40438;52.992;18.604;2022-12-18T04:59:18;102765.81;;;-5.31;100.00
54540;BME280;40438;52.992;18.604;2022-12-18T05:01:44;102766.84;;;-5.35;100.00
54540;BME280;40438;52.992;18.604;2022-12-18T05:04:11;102775.56;;;-5.37;100.00
54540;BME280;40438;52.992;18.604;2022-12-18T05:06:37;102777.41;;;-5.39;100.00
54540;BME280;40438;52.992;18.604;2022-12-18T05:09:03;102785.25;;;-5.39;100.00
54540;BME280;40438;52.992;18.604;2022-12-18T05:11:28;102785.38;;;-5.42;100.00
54540;BME280;40438;52.992;18.604;2022-12-18T05:13:54;102784.00;;;-5.52;100.00
54540;BME280;40438;52.992;18.604;2022-12-18T05:16:20;102792.66;;;-5.50;100.00
54540;BME280;40438;52.992;18.604;2022-12-18T05:18:45;102783.13;;;-5.51;100.00
54540;BME280;40438;52.992;18.604;2022-12-18T05:21:13;102788.34;;;-5.51;100.00
54540;BME280;40438;52.992;18.604;2022-12-18T05:23:38;102800.56;;;-5.51;100.00
54540;BME280;40438;52.992;18.604;2022-12-18T05:26:05;102806.50;;;-5.48;100.00
54540;BME280;40438;52.992;18.604;2022-12-18T05:28:33;102802.16;;;-5.49;100.00
54540;BME280;40438;52.992;18.604;2022-12-18T05:31:00;102815.31;;;-5.50;100.00
54540;BME280;40438;52.992;18.604;2022-12-18T05:33:29;102809.22;;;-5.51;100.00
54540;BME280;40438;52.992;18.604;2022-12-18T05:35:56;102814.56;;;-5.54;100.00
54540;BME280;40438;52.992;18.604;2022-12-18T05:38:25;102815.13;;;-5.46;100.00
54540;BME280;40438;52.992;18.604;2022-12-18T05:40:52;102824.94;;;-5.52;100.00
54540;BME280;40438;52.992;18.604;2022-12-18T05:43:19;102823.25;;;-5.53;100.00
54540;BME280;40438;52.992;18.604;2022-12-18T05:45:45;102816.38;;;-5.56;100.00
54540;BME280;40438;52.992;18.604;2022-12-18T05:48:12;102827.78;;;-5.58;100.00
54540;BME280;40438;52.992;18.604;2022-12-18T05:50:39;102831.28;;;-5.58;100.00
54540;BME280;40438;52.992;18.604;2022-12-18T05:53:05;102833.88;;;-5.58;100.00
54540;BME280;40438;52.992;18.604;2022-12-18T05:55:34;102832.91;;;-5.55;100.00
54540;BME280;40438;52.992;18.604;2022-12-18T05:58:00;102840.00;;;-5.59;100.00
54540;BME280;40438;52.992;18.604;2022-12-18T06:00:26;102840.00;;;-5.59;100.00
54540;BME280;40438;52.992;18.604;2022-12-18T06:02:52;102846.16;;;-5.60;100.00
54540;BME280;40438;52.992;18.604;2022-12-18T06:05:18;102849.59;;;-5.60;100.00
54540;BME280;40438;52.992;18.604;2022-12-18T06:07:44;102853.91;;;-5.58;100.00
54540;BME280;40438;52.992;18.604;2022-12-18T06:10:10;102859.19;;;-5.60;100.00
54540;BME280;40438;52.992;18.604;2022-12-18T06:12:37;102862.78;;;-5.63;100.00
54540;BME280;40438;52.992;18.604;2022-12-18T06:15:03;102865.44;;;-5.64;100.00
54540;BME280;40438;52.992;18.604;2022-12-18T06:17:29;102869.06;;;-5.68;100.00
54540;BME280;40438;52.992;18.604;2022-12-18T06:19:55;102868.28;;;-5.70;100.00
54540;BME280;40438;52.992;18.604;2022-12-18T06:22:21;102875.31;;;-5.72;100.00
54540;BME280;40438;52.992;18.604;2022-12-18T06:24:47;102878.03;;;-5.75;100.00
54540;BME280;40438;52.992;18.604;2022-12-18T06:27:12;102885.16;;;-5.80;100.00
54540;BME280;40438;52.992;18.604;2022-12-18T06:29:39;102893.06;;;-5.82;100.00
54540;BME280;40438;52.992;18.604;2022-12-18T06:32:05;102896.63;;;-5.85;100.00
54540;BME280;40438;52.992;18.604;2022-12-18T06:34:31;102890.69;;;-5.88;100.00
54540;BME280;40438;52.992;18.604;2022-12-18T06:36:57;102897.78;;;-5.92;100.00
54540;BME280;40438;52.992;18.604;2022-12-18T06:39:22;102904.94;;;-5.97;100.00
54540;BME280;40438;52.992;18.604;2022-12-18T06:41:48;102906.88;;;-6.02;100.00
54540;BME280;40438;52.992;18.604;2022-12-18T06:44:14;102914.91;;;-6.08;100.00
54540;BME280;40438;52.992;18.604;2022-12-18T06:46:41;102922.84;;;-6.11;100.00
54540;BME280;40438;52.992;18.604;2022-12-18T06:49:07;102924.75;;;-6.16;100.00
54540;BME280;40438;52.992;18.604;2022-12-18T06:51:32;102942.25;;;-6.20;100.00
54540;BME280;40438;52.992;18.604;2022-12-18T06:53:58;102935.56;;;-6.27;100.00
54540;BME280;40438;52.992;18.604;2022-12-18T06:56:24;102940.03;;;-6.31;100.00
54540;BME280;40438;52.992;18.604;2022-12-18T06:58:49;102937.56;;;-6.35;100.00
54540;BME280;40438;52.992;18.604;2022-12-18T07:01:15;102943.72;;;-6.38;100.00
54540;BME280;40438;52.992;18.604;2022-12-18T07:03:42;102949.03;;;-6.41;100.00
54540;BME280;40438;52.992;18.604;2022-12-18T07:06:13;102950.75;;;-6.40;100.00
54540;BME280;40438;52.992;18.604;2022-12-18T07:08:39;102946.41;;;-6.41;100.00
54540;BME280;40438;52.992;18.604;2022-12-18T07:11:04;102953.38;;;-6.40;100.00
54540;BME280;40438;52.992;18.604;2022-12-18T07:13:30;102958.59;;;-6.40;100.00
54540;BME280;40438;52.992;18.604;2022-12-18T07:16:03;102965.41;;;-6.36;100.00
54540;BME280;40438;52.992;18.604;2022-12-18T07:18:28;102974.03;;;-6.34;100.00
54540;BME280;40438;52.992;18.604;2022-12-18T07:20:56;102975.72;;;-6.33;100.00
54540;BME280;40438;52.992;18.604;2022-12-18T07:23:21;102983.44;;;-6.29;100.00
54540;BME280;40438;52.992;18.604;2022-12-18T07:25:47;102983.38;;;-6.28;100.00
54540;BME280;40438;52.992;18.604;2022-12-18T07:28:13;102981.56;;;-6.24;100.00
54540;BME280;40438;52.992;18.604;2022-12-18T07:30:38;102982.44;;;-6.25;100.00
54540;BME280;40438;52.992;18.604;2022-12-18T07:33:04;102988.50;;;-6.25;100.00
54540;BME280;40438;52.992;18.604;2022-12-18T07:35:30;102995.44;;;-6.24;100.00
54540;BME280;40438;52.992;18.604;2022-12-18T07:37:57;102997.91;;;-6.19;100.00
54540;BME280;40438;52.992;18.604;2022-12-18T07:40:22;102992.75;;;-6.21;100.00
54540;BME280;40438;52.992;18.604;2022-12-18T07:42:48;102991.81;;;-6.20;100.00
54540;BME280;40438;52.992;18.604;2022-12-18T07:45:14;102988.38;;;-6.20;100.00
54540;BME280;40438;52.992;18.604;2022-12-18T07:47:40;102990.97;;;-6.20;100.00
54540;BME280;40438;52.992;18.604;2022-12-18T07:50:06;103003.97;;;-6.19;100.00
54540;BME280;40438;52.992;18.604;2022-12-18T07:52:32;103000.47;;;-6.18;100.00
54540;BME280;40438;52.992;18.604;2022-12-18T07:54:59;103007.31;;;-6.15;100.00
54540;BME280;40438;52.992;18.604;2022-12-18T07:57:25;103008.28;;;-6.18;100.00
54540;BME280;40438;52.992;18.604;2022-12-18T07:59:50;103006.44;;;-6.14;100.00
54540;BME280;40438;52.992;18.604;2022-12-18T08:02:16;103014.16;;;-6.11;100.00
54540;BME280;40438;52.992;18.604;2022-12-18T08:04:42;103019.31;;;-6.10;100.00
54540;BME280;40438;52.992;18.604;2022-12-18T08:07:08;103021.72;;;-6.03;100.00
54540;BME280;40438;52.992;18.604;2022-12-18T08:09:34;103021.00;;;-5.84;100.00
54540;BME280;40438;52.992;18.604;2022-12-18T08:12:01;103022.13;;;-5.91;100.00
54540;BME280;40438;52.992;18.604;2022-12-18T08:14:26;103024.88;;;-5.94;100.00
54540;BME280;40438;52.992;18.604;2022-12-18T08:16:52;103043.00;;;-5.91;100.00
54540;BME280;40438;52.992;18.604;2022-12-18T08:19:18;103034.44;;;-5.93;100.00
54540;BME280;40438;52.992;18.604;2022-12-18T08:21:44;103041.06;;;-5.84;100.00
54540;BME280;40438;52.992;18.604;2022-12-18T08:24:09;103044.06;;;-5.95;100.00
54540;BME280;40438;52.992;18.604;2022-12-18T08:26:35;103039.56;;;-5.91;100.00
54540;BME280;40438;52.992;18.604;2022-12-18T08:29:02;103031.63;;;-5.88;100.00
54540;BME280;40438;52.992;18.604;2022-12-18T08:31:29;103035.84;;;-5.84;100.00
54540;BME280;40438;52.992;18.604;2022-12-18T08:33:56;103042.13;;;-5.90;100.00
54540;BME280;40438;52.992;18.604;2022-12-18T08:36:22;103052.31;;;-5.82;100.00
54540;BME280;40438;52.992;18.604;2022-12-18T08:38:48;103062.00;;;-5.86;100.00
54540;BME280;40438;52.992;18.604;2022-12-18T08:41:15;103067.97;;;-5.82;100.00
54540;BME280;40438;52.992;18.604;2022-12-18T08:43:41;103074.34;;;-5.64;100.00
54540;BME280;40438;52.992;18.604;2022-12-18T08:46:08;103078.66;;;-5.63;100.00
54540;BME280;40438;52.992;18.604;2022-12-18T08:48:34;103080.56;;;-5.68;100.00
54540;BME280;40438;52.992;18.604;2022-12-18T08:51:00;103080.72;;;-5.73;100.00
54540;BME280;40438;52.992;18.604;2022-12-18T08:53:26;103076.25;;;-5.69;100.00
54540;BME280;40438;52.992;18.604;2022-12-18T08:55:52;103083.16;;;-5.68;100.00
54540;BME280;40438;52.992;18.604;2022-12-18T08:58:18;103083.25;;;-5.71;100.00
54540;BME280;40438;52.992;18.604;2022-12-18T09:00:44;103074.56;;;-5.70;100.00
54540;BME280;40438;52.992;18.604;2022-12-18T09:03:12;103076.31;;;-5.71;100.00
54540;BME280;40438;52.992;18.604;2022-12-18T09:05:38;103068.34;;;-5.68;100.00
54540;BME280;40438;52.992;18.604;2022-12-18T09:08:04;103070.06;;;-5.67;100.00
54540;BME280;40438;52.992;18.604;2022-12-18T09:10:29;103074.44;;;-5.67;100.00
54540;BME280;40438;52.992;18.604;2022-12-18T09:12:55;103070.06;;;-5.67;100.00
54540;BME280;40438;52.992;18.604;2022-12-18T09:15:21;103080.25;;;-5.59;100.00
54540;BME280;40438;52.992;18.604;2022-12-18T09:17:47;103087.03;;;-5.53;100.00
54540;BME280;40438;52.992;18.604;2022-12-18T09:20:14;103078.59;;;-5.62;100.00
54540;BME280;40438;52.992;18.604;2022-12-18T09:22:40;103079.47;;;-5.61;100.00
54540;BME280;40438;52.992;18.604;2022-12-18T09:25:06;103091.50;;;-5.57;100.00
54540;BME280;40438;52.992;18.604;2022-12-18T09:27:31;103099.38;;;-5.58;100.00
54540;BME280;40438;52.992;18.604;2022-12-18T09:29:57;103091.72;;;-5.63;100.00
54540;BME280;40438;52.992;18.604;2022-12-18T09:32:23;103092.63;;;-5.64;100.00
54540;BME280;40438;52.992;18.604;2022-12-18T09:34:49;103085.88;;;-5.71;100.00
54540;BME280;40438;52.992;18.604;2022-12-18T09:37:17;103079.25;;;-5.81;100.00
54540;BME280;40438;52.992;18.604;2022-12-18T09:39:42;103085.75;;;-5.67;100.00
54540;BME280;40438;52.992;18.604;2022-12-18T09:42:14;103086.69;;;-5.69;100.00
54540;BME280;40438;52.992;18.604;2022-12-18T09:44:44;103083.56;;;-5.80;100.00
54540;BME280;40438;52.992;18.604;2022-12-18T09:47:15;103086.44;;;-5.88;100.00
54540;BME280;40438;52.992;18.604;2022-12-18T09:49:44;103078.03;;;-5.96;100.00
54540;BME280;40438;52.992;18.604;2022-12-18T09:52:17;103075.41;;;-5.96;100.00
54540;BME280;40438;52.992;18.604;2022-12-18T09:54:47;103077.28;;;-6.00;100.00
54540;BME280;40438;52.992;18.604;2022-12-18T09:57:18;103065.25;;;-6.04;100.00
54540;BME280;40438;52.992;18.604;2022-12-18T09:59:49;103068.66;;;-6.02;100.00
54540;BME280;40438;52.992;18.604;2022-12-18T10:02:19;103069.41;;;-5.98;100.00
54540;BME280;40438;52.992;18.604;2022-12-18T10:04:50;103071.72;;;-5.91;100.00
54540;BME280;40438;52.992;18.604;2022-12-18T10:07:23;103064.31;;;-6.03;100.00
54540;BME280;40438;52.992;18.604;2022-12-18T10:09:58;103056.97;;;-5.92;100.00
54540;BME280;40438;52.992;18.604;2022-12-18T10:12:32;103049.59;;;-6.04;100.00
54540;BME280;40438;52.992;18.604;2022-12-18T10:15:04;103049.03;;;-6.14;100.00
54540;BME280;40438;52.992;18.604;2022-12-18T10:17:40;103059.06;;;-6.01;100.00
54540;BME280;40438;52.992;18.604;2022-12-18T10:20:13;103071.75;;;-6.17;100.00
54540;BME280;40438;52.992;18.604;2022-12-18T10:22:51;103086.69;;;-6.22;100.00
54540;BME280;40438;52.992;18.604;2022-12-18T10:25:23;103080.06;;;-6.33;100.00
54540;BME280;40438;52.992;18.604;2022-12-18T10:27:51;103084.91;;;-6.20;100.00
54540;BME280;40438;52.992;18.604;2022-12-18T10:30:19;103082.22;;;-6.19;100.00
54540;BME280;40438;52.992;18.604;2022-12-18T10:32:45;103078.53;;;-6.12;100.00
54540;BME280;40438;52.992;18.604;2022-12-18T10:35:19;103077.38;;;-6.03;100.00
54540;BME280;40438;52.992;18.604;2022-12-18T10:38:06;103081.94;;;-6.10;100.00
54540;BME280;40438;52.992;18.604;2022-12-18T10:40:33;103079.69;;;-6.20;100.00
54540;BME280;40438;52.992;18.604;2022-12-18T10:43:14;103084.81;;;-6.17;100.00
54540;BME280;40438;52.992;18.604;2022-12-18T10:45:41;103080.81;;;-6.29;100.00
54540;BME280;40438;52.992;18.604;2022-12-18T10:48:18;103082.81;;;-6.37;100.00
54540;BME280;40438;52.992;18.604;2022-12-18T10:50:47;103092.00;;;-6.25;100.00
54540;BME280;40438;52.992;18.604;2022-12-18T10:53:19;103085.81;;;-6.21;100.00
54540;BME280;40438;52.992;18.604;2022-12-18T10:55:46;103088.53;;;-6.26;100.00
54540;BME280;40438;52.992;18.604;2022-12-18T10:58:25;103074.47;;;-6.20;100.00
54540;BME280;40438;52.992;18.604;2022-12-18T11:01:07;103075.03;;;-6.11;100.00
54540;BME280;40438;52.992;18.604;2022-12-18T11:03:36;103075.78;;;-6.35;100.00
54540;BME280;40438;52.992;18.604;2022-12-18T11:06:05;103076.03;;;-6.43;100.00
54540;BME280;40438;52.992;18.604;2022-12-18T11:08:32;103086.28;;;-6.37;100.00
54540;BME280;40438;52.992;18.604;2022-12-18T11:10:58;103090.50;;;-6.33;100.00
54540;BME280;40438;52.992;18.604;2022-12-18T11:13:26;103090.50;;;-6.33;100.00
54540;BME280;40438;52.992;18.604;2022-12-18T11:15:53;103099.22;;;-6.34;100.00
54540;BME280;40438;52.992;18.604;2022-12-18T11:18:23;103086.09;;;-6.31;100.00
54540;BME280;40438;52.992;18.604;2022-12-18T11:20:51;103096.16;;;-6.18;100.00
54540;BME280;40438;52.992;18.604;2022-12-18T11:23:19;103105.78;;;-6.20;100.00
54540;BME280;40438;52.992;18.604;2022-12-18T11:25:53;103114.34;;;-6.17;100.00
54540;BME280;40438;52.992;18.604;2022-12-18T11:28:36;103118.56;;;-6.13;100.00
54540;BME280;40438;52.992;18.604;2022-12-18T11:31:15;103121.63;;;-6.28;100.00
54540;BME280;40438;52.992;18.604;2022-12-18T11:33:44;103132.31;;;-6.36;100.00
54540;BME280;40438;52.992;18.604;2022-12-18T11:36:12;103139.50;;;-6.44;100.00
54540;BME280;40438;52.992;18.604;2022-12-18T11:38:41;103133.53;;;-6.47;100.00
54540;BME280;40438;52.992;18.604;2022-12-18T11:41:19;103128.53;;;-6.55;100.00
54540;BME280;40438;52.992;18.604;2022-12-18T11:43:51;103133.69;;;-6.52;100.00
54540;BME280;40438;52.992;18.604;2022-12-18T11:46:23;103135.84;;;-6.37;100.00
54540;BME280;40438;52.992;18.604;2022-12-18T11:48:54;103128.97;;;-6.41;100.00
54540;BME280;40438;52.992;18.604;2022-12-18T11:51:28;103121.78;;;-6.33;100.00
54540;BME280;40438;52.992;18.604;2022-12-18T11:53:57;103125.97;;;-6.27;100.00
54540;BME280;40438;52.992;18.604;2022-12-18T11:56:30;103128.44;;;-6.22;100.00
54540;BME280;40438;52.992;18.604;2022-12-18T11:59:06;103132.06;;;-6.28;100.00
54540;BME280;40438;52.992;18.604;2022-12-18T12:01:43;103135.47;;;-6.24;100.00
54540;BME280;40438;52.992;18.604;2022-12-18T12:04:41;103136.22;;;-6.21;100.00
54540;BME280;40438;52.992;18.604;2022-12-18T12:07:21;103130.81;;;-6.43;100.00
54540;BME280;40438;52.992;18.604;2022-12-18T12:09:59;103133.63;;;-6.50;100.00
54540;BME280;40438;52.992;18.604;2022-12-18T12:12:36;103136.47;;;-6.58;100.00
54540;BME280;40438;52.992;18.604;2022-12-18T12:15:13;103135.47;;;-6.54;100.00
54540;BME280;40438;52.992;18.604;2022-12-18T12:17:47;103129.56;;;-6.61;100.00
54540;BME280;40438;52.992;18.604;2022-12-18T12:20:20;103125.94;;;-6.55;100.00
54540;BME280;40438;52.992;18.604;2022-12-18T12:22:55;103133.50;;;-6.46;100.00
54540;BME280;40438;52.992;18.604;2022-12-18T12:25:33;103131.06;;;-6.52;100.00
54540;BME280;40438;52.992;18.604;2022-12-18T12:28:13;103131.91;;;-6.51;100.00
54540;BME280;40438;52.992;18.604;2022-12-18T12:30:52;103129.72;;;-6.65;100.00
54540;BME280;40438;52.992;18.604;2022-12-18T12:33:31;103126.47;;;-6.73;100.00
54540;BME280;40438;52.992;18.604;2022-12-18T12:36:08;103129.81;;;-6.68;100.00
54540;BME280;40438;52.992;18.604;2022-12-18T12:38:37;103143.72;;;-6.69;100.00